Latest Weather Observations for Kingscote

IDS60801

Issued at 5:35 pm CST Monday 21 April 2014 (issued every 30 minutes, with the page automatically refreshed every 10 minutes)

About weather observations | Map of weather stations | Latest weather observations for SA | Other Formats
Station Details ID: 022841 Name: KINGSCOTE AERO Lat: -35.71 Lon: 137.52 Height: 6.23 m
Data from the previous 72 hours. | See also: Recent months at Kingscote
Date/Time
CST
Temp
°C
App
Temp
°C
Dew
Point
Rel
Hum
%
Delta-T
°C
Wind Press
QNH
hPa
Press
MSL
hPa
Rain
since 9 am
mm
Dir
 
Spd
km/h
Gust
km/h
Spd
kts
Gust
kts
21/05:30pm 22.1 19.4 13.5 58 5.0 WNW 20 30 11 16 1009.2 - 0.0
21/05:00pm 22.7 20.4 12.9 54 5.6 W 17 24 9 13 1009.6 - 0.0
21/04:30pm 23.2 20.4 13.1 53 5.8 NW 20 28 11 15 1009.2 - 0.0
21/04:00pm 23.8 20.2 13.1 51 6.2 WNW 24 35 13 19 1009.1 - 0.0
21/03:30pm 23.9 20.2 12.8 49 6.4 WNW 24 35 13 19 1009.4 - 0.0
21/03:17pm 24.2 18.9 12.5 48 6.7 WNW 32 50 17 27 1009.3 - 0.0
21/03:00pm 24.9 19.9 12.2 45 7.3 NW 30 41 16 22 1009.2 1009.2 0.0
21/02:30pm 24.1 19.7 13.0 50 6.4 W 28 39 15 21 1009.4 - 0.0
21/02:05pm 24.8 18.0 12.1 45 7.3 WNW 39 57 21 31 1009.4 - 0.0
21/02:00pm 25.3 18.8 11.8 43 7.7 WNW 37 50 20 27 1009.4 - 0.0
21/01:51pm 26.2 19.0 11.9 41 8.2 W 41 48 22 26 1009.5 - 0.0
21/01:36pm 27.7 22.0 12.9 40 8.7 NW 35 54 19 29 1009.4 - 0.0
21/01:30pm 27.6 21.2 12.0 38 9.0 WNW 37 54 20 29 1009.4 - 0.0
21/01:12pm 27.5 22.8 13.1 41 8.5 NW 30 48 16 26 1009.4 - 0.0
21/01:00pm 26.5 22.3 13.6 45 7.6 NW 28 43 15 23 1009.2 - 0.0
21/12:30pm 25.6 20.5 13.1 46 7.3 NW 32 46 17 25 1010.0 - 0.0
21/12:00pm 26.2 20.6 13.3 45 7.6 NW 35 48 19 26 1010.3 1010.3 0.0
21/11:38am 26.8 20.9 13.5 44 7.8 NW 37 56 20 30 1010.5 - 0.0
21/11:30am 27.0 20.8 13.7 44 7.9 NW 39 56 21 30 1010.6 - 0.0
21/11:00am 25.6 20.7 13.8 48 7.0 NW 32 50 17 27 1010.8 - 0.0
21/10:30am 23.9 19.2 14.3 55 5.7 NW 32 43 17 23 1011.0 - 0.0
21/10:00am 23.9 19.0 14.3 55 5.7 NNW 33 50 18 27 1010.8 - 0.0
21/09:30am 22.8 19.7 14.4 59 4.9 NNW 24 39 13 21 1011.0 - 0.0
21/09:14am 22.4 18.6 14.8 62 4.5 NNW 28 46 15 25 1011.1 - 0.0
21/09:00am 22.1 18.9 15.2 65 4.1 NNW 26 39 14 21 1011.1 1011.1 0.0
21/08:30am 20.7 17.7 15.9 74 2.9 N 26 39 14 21 1011.2 - 0.0
21/08:00am 19.6 17.0 14.8 74 2.8 N 22 33 12 18 1011.1 - 0.0
21/07:30am 18.8 17.1 13.6 72 3.0 N 15 24 8 13 1011.1 - 0.0
21/07:00am 18.7 15.9 13.1 70 3.2 N 20 33 11 18 1011.0 - 0.0
21/06:30am 18.8 17.4 14.5 76 2.5 N 15 26 8 14 1011.4 - 0.0
21/06:00am 17.5 16.8 14.4 82 1.8 NE 11 15 6 8 1011.9 1011.9 0.0
21/05:30am 18.5 17.8 14.4 77 2.4 NNE 11 20 6 11 1012.3 - 0.0
21/05:00am 18.3 17.2 14.4 78 2.2 NNE 13 19 7 10 1012.1 - 0.0
21/04:30am 18.5 16.7 14.4 77 2.4 NNE 17 28 9 15 1011.9 - 0.0
21/04:00am 18.1 16.0 14.8 81 1.9 NNE 19 30 10 16 1011.7 - 0.0
21/03:30am 18.0 15.9 15.1 83 1.7 N 20 32 11 17 1012.2 - 0.0
21/03:00am 18.1 16.3 15.5 85 1.5 NNE 19 28 10 15 1012.6 1012.6 0.0
21/02:30am 17.9 16.8 16.4 91 0.9 NE 17 22 9 12 1013.1 - 0.0
21/02:00am 17.2 15.7 15.4 89 1.1 NE 17 20 9 11 1013.6 - 0.0
21/01:30am 16.8 15.6 15.0 89 1.0 NE 15 19 8 10 1014.3 - 0.0
21/01:00am 16.2 16.2 15.2 94 0.6 NE 9 11 5 6 1014.6 - 0.0
21/12:30am 16.2 15.4 15.1 93 0.6 NE 13 15 7 8 1015.0 - 0.0
21/12:00am 16.9 16.4 15.8 93 0.6 NNE 13 17 7 9 1015.4 1015.4 0.0
 
Date/Time
CST
Temp
°C
App
Temp
°C
Dew
Point
Rel
Hum
%
Delta-T
°C
Wind Press
QNH
hPa
Press
MSL
hPa
Rain
since 9 am
mm
Dir
 
Spd
km/h
Gust
km/h
Spd
kts
Gust
kts
20/11:30pm 16.5 16.0 15.9 96 0.4 NNE 13 17 7 9 1015.5 - 0.0
20/11:00pm 16.3 16.2 16.1 99 0.1 ENE 11 15 6 8 1015.8 - 0.0
20/10:30pm 16.0 15.8 15.8 99 0.1 ENE 11 17 6 9 1016.4 - 0.0
20/10:00pm 15.6 15.6 15.1 97 0.3 E 9 13 5 7 1016.4 - 0.0
20/09:30pm 15.7 14.9 15.1 96 0.3 E 13 15 7 8 1016.9 - 0.0
20/09:00pm 15.5 15.2 14.5 94 0.6 ESE 9 11 5 6 1017.4 1017.4 0.0
20/08:30pm 16.1 16.3 14.8 92 0.7 E 7 7 4 4 1017.7 - 0.0
20/08:00pm 16.1 15.9 14.6 91 0.9 E 9 11 5 6 1017.7 - 0.0
20/07:30pm 16.7 16.6 14.9 89 1.0 ESE 9 11 5 6 1017.8 - 0.0
20/07:00pm 17.1 17.0 14.9 87 1.3 SE 9 13 5 7 1017.8 - 0.0
20/06:30pm 18.0 17.4 14.7 81 1.9 SSE 11 15 6 8 1017.5 - 0.0
20/06:00pm 18.3 17.7 13.6 74 2.7 SE 9 11 5 6 1017.2 1017.2 0.0
20/05:30pm 18.9 18.5 14.0 73 2.8 SSE 9 11 5 6 1017.1 - 0.0
20/05:00pm 19.0 17.7 13.8 72 3.0 SSE 13 15 7 8 1017.1 - 0.0
20/04:30pm 19.4 17.9 14.2 72 3.0 S 15 20 8 11 1016.7 - 0.0
20/04:00pm 20.1 17.9 14.5 70 3.3 S 19 20 10 11 1016.7 - 0.0
20/03:30pm 21.0 18.7 14.2 65 4.0 WNW 19 24 10 13 1016.7 - 0.0
20/03:00pm 21.3 19.2 13.5 61 4.5 W 17 22 9 12 1016.7 1016.7 0.0
20/02:30pm 21.5 18.8 12.9 58 4.9 W 19 30 10 16 1016.4 - 0.0
20/02:00pm 21.9 18.8 12.2 54 5.5 W 20 30 11 16 1016.3 - 0.0
20/01:30pm 21.5 18.5 12.4 56 5.1 W 20 39 11 21 1016.6 - 0.0
20/01:00pm 22.3 17.4 11.4 50 6.1 WNW 28 37 15 20 1016.8 - 0.0
20/12:30pm 21.9 16.9 11.0 50 6.0 WNW 28 39 15 21 1017.1 - 0.0
20/12:00pm 21.5 16.9 10.9 51 5.8 NW 26 41 14 22 1017.4 1017.4 0.0
20/11:30am 21.6 17.5 11.3 52 5.7 NW 24 33 13 18 1017.6 - 0.0
20/11:00am 21.4 17.1 10.6 50 5.9 WNW 24 30 13 16 1017.8 - 0.0
20/10:30am 20.1 15.5 11.1 56 4.9 NW 26 32 14 17 1018.1 - 0.0
20/10:00am 18.8 14.6 11.1 61 4.2 W 24 28 13 15 1018.2 - 0.0
20/09:30am 19.5 16.3 12.0 62 4.2 WNW 20 30 11 16 1018.3 - 0.0
20/09:00am 17.6 18.6 13.1 75 2.5 CALM 0 0 0 0 1018.5 1018.5 0.0
20/08:30am 15.2 15.9 12.3 83 1.6 CALM 0 0 0 0 1018.6 - 0.0
20/08:00am 12.6 12.5 10.8 89 0.9 S 2 7 1 4 1018.3 - 0.0
20/07:30am 11.0 11.2 10.4 96 0.3 CALM 0 0 0 0 1017.8 - 0.0
20/07:00am 9.3 9.0 8.8 97 0.2 CALM 0 0 0 0 1017.7 - 0.0
20/06:30am 10.0 9.9 9.5 97 0.2 CALM 0 6 0 3 1017.2 - 0.0
20/06:00am 9.3 9.1 9.2 99 0.0 CALM 0 9 0 5 1017.4 1017.4 0.0
20/05:30am 8.6 8.3 8.5 99 0.0 CALM 0 0 0 0 1017.0 - 0.0
20/05:00am 8.4 8.0 8.3 99 0.0 CALM 0 0 0 0 1016.9 - 0.0
20/04:30am 7.1 6.4 6.8 98 0.1 CALM 0 0 0 0 1016.8 - 0.0
20/04:00am 8.1 7.6 8.0 99 0.0 CALM 0 0 0 0 1017.0 - 0.0
20/03:30am 8.3 7.1 7.9 97 0.2 SW 4 7 2 4 1016.9 - 0.0
20/03:00am 8.7 7.4 7.8 94 0.4 SW 4 6 2 3 1016.9 1016.9 0.0
20/02:30am 9.7 8.2 8.3 91 0.7 SW 6 7 3 4 1017.0 - 0.0
20/02:00am 10.4 8.9 8.3 87 1.0 SW 6 7 3 4 1017.1 - 0.0
20/01:30am 11.7 10.0 8.4 80 1.6 WSW 7 9 4 5 1017.2 - 0.0
20/01:00am 13.5 11.3 9.2 75 2.2 NW 11 13 6 7 1017.2 - 0.0
20/12:30am 14.1 12.3 9.5 74 2.4 NW 9 11 5 6 1017.2 - 0.0
20/12:00am 13.9 11.7 9.5 75 2.2 WNW 11 15 6 8 1017.4 1017.4 0.0
 
Date/Time
CST
Temp
°C
App
Temp
°C
Dew
Point
Rel
Hum
%
Delta-T
°C
Wind Press
QNH
hPa
Press
MSL
hPa
Rain
since 9 am
mm
Dir
 
Spd
km/h
Gust
km/h
Spd
kts
Gust
kts
19/11:30pm 14.4 12.7 9.8 74 2.4 N 9 11 5 6 1017.4 - 0.0
19/11:00pm 14.1 13.0 9.9 76 2.2 N 6 9 3 5 1017.8 - 0.0
19/10:30pm 14.4 13.1 10.0 75 2.3 NNW 7 9 4 5 1018.1 - 0.0
19/10:00pm 14.5 13.3 10.3 76 2.2 NNW 7 11 4 6 1018.5 - 0.0
19/09:30pm 13.9 12.8 10.5 80 1.8 WSW 7 15 4 8 1018.5 - 0.0
19/09:00pm 13.7 12.4 10.1 79 1.9 S 7 9 4 5 1018.4 1018.4 0.0
19/08:30pm 14.0 12.7 9.8 76 2.2 SW 7 7 4 4 1018.5 - 0.0
19/08:00pm 14.7 12.9 9.5 71 2.7 W 9 11 5 6 1018.5 - 0.0
19/07:30pm 15.1 12.9 9.2 68 3.0 W 11 13 6 7 1018.4 - 0.0
19/07:00pm 15.5 13.9 10.1 70 2.8 W 9 11 5 6 1018.3 - 0.0
19/06:30pm 15.8 14.1 9.7 67 3.2 W 9 13 5 7 1018.2 - 0.0
19/06:00pm 15.9 14.0 8.9 63 3.6 W 9 11 5 6 1018.2 1018.2 0.0
19/05:30pm 17.0 13.8 8.4 57 4.4 NW 15 22 8 12 1018.0 - 0.0
19/05:00pm 17.2 14.5 7.5 53 4.9 NW 11 19 6 10 1017.9 - 0.0
19/04:30pm 18.1 13.7 7.2 49 5.5 NW 20 26 11 14 1018.0 - 0.0
19/04:00pm 18.7 13.8 6.9 46 5.9 NW 22 30 12 16 1018.1 - 0.0
19/03:30pm 20.4 18.1 7.4 43 6.7 NNW 9 19 5 10 1018.5 - 0.0
19/03:00pm 20.3 17.1 8.3 46 6.2 ESE 15 22 8 12 1018.6 1018.6 0.0
19/02:30pm 19.5 17.5 7.3 45 6.2 S 7 15 4 8 1018.7 - 0.0
19/02:00pm 19.5 15.4 7.9 47 6.0 E 19 28 10 15 1018.9 - 0.0
19/01:30pm 18.8 15.8 7.9 49 5.6 ENE 13 19 7 10 1019.4 - 0.0
19/01:00pm 18.8 16.8 6.9 46 6.0 SW 7 11 4 6 1019.9 - 0.0
19/12:30pm 19.1 15.8 6.6 44 6.2 W 13 20 7 11 1020.6 - 0.0
19/12:00pm 19.6 17.3 7.4 45 6.2 NNW 9 26 5 14 1021.0 1021.0 0.0
19/11:30am 17.5 14.1 6.1 47 5.6 NNW 13 19 7 10 1021.7 - 0.0
19/11:00am 18.1 16.1 7.2 49 5.5 NE 7 9 4 5 1022.0 - 0.0
19/10:30am 17.5 15.5 7.0 50 5.2 NNW 7 13 4 7 1022.3 - 0.0
19/10:00am 17.2 14.8 7.0 51 5.1 SW 9 17 5 9 1022.6 - 0.0
19/09:30am 17.1 14.8 7.5 53 4.8 W 9 15 5 8 1022.9 - 0.0
19/09:00am 15.8 13.4 8.8 63 3.6 SW 11 13 6 7 1023.0 1023.0 0.0
19/08:30am 13.0 12.7 8.7 75 2.2 CALM 0 0 0 0 1023.1 - 0.0
19/08:00am 11.4 11.1 8.6 83 1.4 CALM 0 0 0 0 1023.0 - 0.0
19/07:30am 10.0 9.7 8.6 91 0.7 CALM 0 0 0 0 1022.7 - 0.0
19/07:00am 8.9 8.6 8.6 98 0.1 CALM 0 0 0 0 1022.5 - 0.0
19/06:30am 8.1 7.6 8.0 99 0.0 CALM 0 0 0 0 1022.5 - 0.0
19/06:00am 7.3 6.7 7.2 99 0.0 CALM 0 0 0 0 1022.4 1022.4 0.0
19/05:30am 6.6 5.8 6.5 99 0.0 CALM 0 0 0 0 1022.4 - 0.0
19/05:00am 6.6 5.8 6.5 99 0.0 CALM 0 0 0 0 1022.4 - 0.0
19/04:30am 6.7 5.9 6.6 99 0.0 CALM 0 0 0 0 1022.2 - 0.0
19/04:00am 8.7 8.3 8.4 98 0.1 CALM 0 0 0 0 1022.2 - 0.0
19/03:30am 8.8 8.4 8.4 97 0.2 CALM 0 0 0 0 1022.3 - 0.0
19/03:00am 10.0 9.7 8.8 92 0.6 CALM 0 0 0 0 1022.4 1022.4 0.0
19/02:30am 10.7 10.5 9.1 90 0.8 CALM 0 0 0 0 1022.5 - 0.0
19/02:00am 10.8 10.7 9.4 91 0.7 CALM 0 0 0 0 1022.8 - 0.0
19/01:30am 10.2 10.1 9.4 95 0.4 CALM 0 0 0 0 1023.0 - 0.0
19/01:00am 9.8 9.6 9.0 95 0.4 CALM 0 0 0 0 1023.1 - 0.0
19/12:30am 8.7 8.3 8.4 98 0.1 CALM 0 0 0 0 1023.3 - 0.0
19/12:00am 8.8 8.3 7.9 94 0.4 CALM 0 0 0 0 1023.4 1023.4 0.0
 
Date/Time
CST
Temp
°C
App
Temp
°C
Dew
Point
Rel
Hum
%
Delta-T
°C
Wind Press
QNH
hPa
Press
MSL
hPa
Rain
since 9 am
mm
Dir
 
Spd
km/h
Gust
km/h
Spd
kts
Gust
kts
18/11:30pm 9.8 9.4 8.2 90 0.8 CALM 0 0 0 0 1023.5 - 0.0
18/11:00pm 10.6 9.9 8.7 88 0.9 ENE 2 7 1 4 1023.6 - 0.0
18/10:30pm 9.9 9.2 8.7 92 0.6 WSW 2 15 1 8 1023.7 - 0.0
18/10:00pm 9.5 9.2 8.6 94 0.4 CALM 0 0 0 0 1024.0 - 0.0
18/09:30pm 8.0 7.4 7.2 95 0.4 CALM 0 0 0 0 1024.1 - 0.0
18/09:00pm 8.0 6.1 6.9 93 0.5 W 6 7 3 4 1023.9 1023.9 0.0
18/08:30pm 8.3 6.1 6.3 87 0.9 WSW 7 9 4 5 1024.1 - 0.0
18/08:00pm 9.3 7.2 6.6 83 1.3 WSW 7 9 4 5 1023.9 - 0.0
18/07:30pm 10.5 8.5 7.0 79 1.7 SW 7 9 4 5 1023.8 - 0.0
18/07:00pm 11.8 10.0 7.1 73 2.3 S 6 7 3 4 1023.5 - 0.0
18/06:30pm 13.6 11.7 7.4 66 3.0 S 7 9 4 5 1023.3 - 0.0
18/06:00pm 14.4 12.5 7.5 63 3.4 SSW 7 9 4 5 1023.2 1023.2 0.0

Other Formats:

Comma delimited format used in spreadsheet applications
http://www.bom.gov.au/fwo/IDS60801/IDS60801.95807.axf

JavaScript Object Notation format (JSON) in row-major order
http://www.bom.gov.au/fwo/IDS60801/IDS60801.95807.json